sensor_id;sensor_type;location;lat;lon;timestamp;pressure;altitude;pressure_sealevel;temperature
72278;BMP280;61204;49.980;8.358;2023-04-28T00:01:30;100491.97;;;12.29
72278;BMP280;61204;49.980;8.358;2023-04-28T00:03:56;100477.94;;;12.25
72278;BMP280;61204;49.980;8.358;2023-04-28T00:06:22;100470.31;;;12.24
72278;BMP280;61204;49.980;8.358;2023-04-28T00:08:47;100471.88;;;12.27
72278;BMP280;61204;49.980;8.358;2023-04-28T00:11:13;100461.59;;;12.27
72278;BMP280;61204;49.980;8.358;2023-04-28T00:13:38;100456.81;;;12.28
72278;BMP280;61204;49.980;8.358;2023-04-28T00:16:04;100454.94;;;12.31
72278;BMP280;61204;49.980;8.358;2023-04-28T00:18:30;100445.97;;;12.30
72278;BMP280;61204;49.980;8.358;2023-04-28T00:20:57;100449.28;;;12.28
72278;BMP280;61204;49.980;8.358;2023-04-28T00:23:22;100443.06;;;12.28
72278;BMP280;61204;49.980;8.358;2023-04-28T00:25:51;100436.03;;;12.25
72278;BMP280;61204;49.980;8.358;2023-04-28T00:28:18;100447.72;;;12.25
72278;BMP280;61204;49.980;8.358;2023-04-28T00:30:46;100439.38;;;12.35
72278;BMP280;61204;49.980;8.358;2023-04-28T00:33:12;100433.44;;;12.39
72278;BMP280;61204;49.980;8.358;2023-04-28T00:35:40;100433.66;;;12.31
72278;BMP280;61204;49.980;8.358;2023-04-28T00:38:06;100428.75;;;12.29
72278;BMP280;61204;49.980;8.358;2023-04-28T00:40:35;100430.75;;;12.29
72278;BMP280;61204;49.980;8.358;2023-04-28T00:43:04;100428.88;;;12.32
72278;BMP280;61204;49.980;8.358;2023-04-28T00:45:32;100430.03;;;12.28
72278;BMP280;61204;49.980;8.358;2023-04-28T00:47:58;100420.97;;;12.26
72278;BMP280;61204;49.980;8.358;2023-04-28T00:50:24;100424.19;;;12.22
72278;BMP280;61204;49.980;8.358;2023-04-28T00:52:51;100422.88;;;12.23
72278;BMP280;61204;49.980;8.358;2023-04-28T00:55:17;100416.41;;;12.19
72278;BMP280;61204;49.980;8.358;2023-04-28T00:57:43;100401.13;;;12.16
72278;BMP280;61204;49.980;8.358;2023-04-28T01:00:13;100398.38;;;12.16
72278;BMP280;61204;49.980;8.358;2023-04-28T01:02:40;100398.09;;;12.12
72278;BMP280;61204;49.980;8.358;2023-04-28T01:05:05;100389.84;;;12.12
72278;BMP280;61204;49.980;8.358;2023-04-28T01:07:33;100379.47;;;12.10
72278;BMP280;61204;49.980;8.358;2023-04-28T01:09:59;100385.41;;;12.07
72278;BMP280;61204;49.980;8.358;2023-04-28T01:12:24;100383.84;;;12.04
72278;BMP280;61204;49.980;8.358;2023-04-28T01:14:50;100376.81;;;12.00
72278;BMP280;61204;49.980;8.358;2023-04-28T01:17:16;100371.66;;;11.95
72278;BMP280;61204;49.980;8.358;2023-04-28T01:19:42;100373.63;;;11.83
72278;BMP280;61204;49.980;8.358;2023-04-28T01:22:07;100371.56;;;11.71
72278;BMP280;61204;49.980;8.358;2023-04-28T01:24:37;100378.44;;;11.61
72278;BMP280;61204;49.980;8.358;2023-04-28T01:27:03;100370.31;;;11.51
72278;BMP280;61204;49.980;8.358;2023-04-28T01:29:28;100388.28;;;11.42
72278;BMP280;61204;49.980;8.358;2023-04-28T01:31:54;100372.47;;;11.31
72278;BMP280;61204;49.980;8.358;2023-04-28T01:34:19;100359.66;;;11.24
72278;BMP280;61204;49.980;8.358;2023-04-28T01:36:45;100366.88;;;11.20
72278;BMP280;61204;49.980;8.358;2023-04-28T01:39:10;100347.69;;;11.20
72278;BMP280;61204;49.980;8.358;2023-04-28T01:41:36;100355.38;;;11.11
72278;BMP280;61204;49.980;8.358;2023-04-28T01:44:01;100349.06;;;11.09
72278;BMP280;61204;49.980;8.358;2023-04-28T01:46:27;100355.09;;;11.07
72278;BMP280;61204;49.980;8.358;2023-04-28T01:48:53;100366.38;;;11.11
72278;BMP280;61204;49.980;8.358;2023-04-28T01:51:21;100352.25;;;11.05
72278;BMP280;61204;49.980;8.358;2023-04-28T01:53:46;100366.63;;;11.15
72278;BMP280;61204;49.980;8.358;2023-04-28T01:56:49;100366.69;;;11.06
72278;BMP280;61204;49.980;8.358;2023-04-28T01:59:15;100365.38;;;11.07
72278;BMP280;61204;49.980;8.358;2023-04-28T02:01:40;100355.88;;;10.98
72278;BMP280;61204;49.980;8.358;2023-04-28T02:04:06;100350.59;;;10.90
72278;BMP280;61204;49.980;8.358;2023-04-28T02:06:31;100350.78;;;10.83
72278;BMP280;61204;49.980;8.358;2023-04-28T02:08:57;100350.81;;;10.73
72278;BMP280;61204;49.980;8.358;2023-04-28T02:11:22;100359.50;;;10.70
72278;BMP280;61204;49.980;8.358;2023-04-28T02:13:48;100356.19;;;10.71
72278;BMP280;61204;49.980;8.358;2023-04-28T02:16:16;100353.72;;;10.66
72278;BMP280;61204;49.980;8.358;2023-04-28T02:18:42;100354.34;;;10.64
72278;BMP280;61204;49.980;8.358;2023-04-28T02:21:10;100351.16;;;10.58
72278;BMP280;61204;49.980;8.358;2023-04-28T02:23:37;100351.91;;;10.49
72278;BMP280;61204;49.980;8.358;2023-04-28T02:26:03;100348.34;;;10.46
72278;BMP280;61204;49.980;8.358;2023-04-28T02:28:31;100347.03;;;10.47
72278;BMP280;61204;49.980;8.358;2023-04-28T02:31:06;100339.66;;;10.40
72278;BMP280;61204;49.980;8.358;2023-04-28T02:33:35;100322.25;;;10.35
72278;BMP280;61204;49.980;8.358;2023-04-28T02:36:02;100322.13;;;10.33
72278;BMP280;61204;49.980;8.358;2023-04-28T02:38:29;100319.38;;;10.33
72278;BMP280;61204;49.980;8.358;2023-04-28T02:41:05;100317.19;;;10.32
72278;BMP280;61204;49.980;8.358;2023-04-28T02:43:33;100319.66;;;10.38
72278;BMP280;61204;49.980;8.358;2023-04-28T02:46:01;100314.91;;;10.38
72278;BMP280;61204;49.980;8.358;2023-04-28T02:48:31;100312.88;;;10.39
72278;BMP280;61204;49.980;8.358;2023-04-28T02:50:59;100321.50;;;10.45
72278;BMP280;61204;49.980;8.358;2023-04-28T02:53:25;100310.53;;;10.45
72278;BMP280;61204;49.980;8.358;2023-04-28T02:55:50;100311.09;;;10.43
72278;BMP280;61204;49.980;8.358;2023-04-28T02:58:16;100306.78;;;10.40
72278;BMP280;61204;49.980;8.358;2023-04-28T03:00:44;100306.94;;;10.42
72278;BMP280;61204;49.980;8.358;2023-04-28T03:03:10;100304.19;;;10.42
72278;BMP280;61204;49.980;8.358;2023-04-28T03:05:36;100299.28;;;10.41
72278;BMP280;61204;49.980;8.358;2023-04-28T03:08:01;100293.81;;;10.41
72278;BMP280;61204;49.980;8.358;2023-04-28T03:10:38;100295.81;;;10.40
72278;BMP280;61204;49.980;8.358;2023-04-28T03:13:06;100291.34;;;10.45
72278;BMP280;61204;49.980;8.358;2023-04-28T03:15:32;100281.50;;;10.51
72278;BMP280;61204;49.980;8.358;2023-04-28T03:17:57;100281.13;;;10.45
72278;BMP280;61204;49.980;8.358;2023-04-28T03:20:23;100286.06;;;10.37
72278;BMP280;61204;49.980;8.358;2023-04-28T03:22:48;100283.50;;;10.29
72278;BMP280;61204;49.980;8.358;2023-04-28T03:25:14;100276.53;;;10.28
72278;BMP280;61204;49.980;8.358;2023-04-28T03:27:39;100265.84;;;10.32
72278;BMP280;61204;49.980;8.358;2023-04-28T03:30:05;100259.09;;;10.33
72278;BMP280;61204;49.980;8.358;2023-04-28T03:32:31;100267.44;;;10.35
72278;BMP280;61204;49.980;8.358;2023-04-28T03:34:56;100262.81;;;10.38
72278;BMP280;61204;49.980;8.358;2023-04-28T03:37:21;100265.56;;;10.38
72278;BMP280;61204;49.980;8.358;2023-04-28T03:39:47;100264.25;;;10.39
72278;BMP280;61204;49.980;8.358;2023-04-28T03:42:12;100257.88;;;10.46
72278;BMP280;61204;49.980;8.358;2023-04-28T03:44:38;100258.72;;;10.49
72278;BMP280;61204;49.980;8.358;2023-04-28T03:47:05;100256.56;;;10.47
72278;BMP280;61204;49.980;8.358;2023-04-28T03:49:31;100249.66;;;10.46
72278;BMP280;61204;49.980;8.358;2023-04-28T03:51:57;100243.47;;;10.46
72278;BMP280;61204;49.980;8.358;2023-04-28T03:54:22;100237.38;;;10.47
72278;BMP280;61204;49.980;8.358;2023-04-28T03:56:47;100226.28;;;10.45
72278;BMP280;61204;49.980;8.358;2023-04-28T03:59:13;100228.75;;;10.41
72278;BMP280;61204;49.980;8.358;2023-04-28T04:01:38;100218.97;;;10.38
72278;BMP280;61204;49.980;8.358;2023-04-28T04:04:04;100220.72;;;10.33
72278;BMP280;61204;49.980;8.358;2023-04-28T04:06:30;100221.19;;;10.30
72278;BMP280;61204;49.980;8.358;2023-04-28T04:08:56;100219.44;;;10.25
72278;BMP280;61204;49.980;8.358;2023-04-28T04:11:22;100211.56;;;10.19
72278;BMP280;61204;49.980;8.358;2023-04-28T04:13:47;100218.91;;;10.17
72278;BMP280;61204;49.980;8.358;2023-04-28T04:16:13;100207.84;;;10.15
72278;BMP280;61204;49.980;8.358;2023-04-28T04:18:41;100207.84;;;10.15
72278;BMP280;61204;49.980;8.358;2023-04-28T04:21:07;100203.78;;;10.16
72278;BMP280;61204;49.980;8.358;2023-04-28T04:23:32;100203.19;;;10.17
72278;BMP280;61204;49.980;8.358;2023-04-28T04:25:58;100183.19;;;10.15
72278;BMP280;61204;49.980;8.358;2023-04-28T04:28:23;100189.81;;;10.12
72278;BMP280;61204;49.980;8.358;2023-04-28T04:30:49;100173.38;;;10.12
72278;BMP280;61204;49.980;8.358;2023-04-28T04:33:14;100175.06;;;10.17
72278;BMP280;61204;49.980;8.358;2023-04-28T04:35:40;100185.59;;;10.20
72278;BMP280;61204;49.980;8.358;2023-04-28T04:38:05;100182.84;;;10.20
72278;BMP280;61204;49.980;8.358;2023-04-28T04:40:31;100185.84;;;10.24
72278;BMP280;61204;49.980;8.358;2023-04-28T04:42:57;100188.50;;;10.22
72278;BMP280;61204;49.980;8.358;2023-04-28T04:45:22;100185.03;;;10.22
72278;BMP280;61204;49.980;8.358;2023-04-28T04:47:51;100180.84;;;10.21
72278;BMP280;61204;49.980;8.358;2023-04-28T04:50:17;100176.50;;;10.18
72278;BMP280;61204;49.980;8.358;2023-04-28T04:52:42;100183.88;;;10.15
72278;BMP280;61204;49.980;8.358;2023-04-28T04:55:10;100191.84;;;10.11
72278;BMP280;61204;49.980;8.358;2023-04-28T04:57:37;100191.13;;;10.11
72278;BMP280;61204;49.980;8.358;2023-04-28T05:00:03;100176.69;;;10.10
72278;BMP280;61204;49.980;8.358;2023-04-28T05:02:30;100179.31;;;10.08
72278;BMP280;61204;49.980;8.358;2023-04-28T05:04:58;100185.97;;;10.05
72278;BMP280;61204;49.980;8.358;2023-04-28T05:07:24;100183.09;;;10.03
72278;BMP280;61204;49.980;8.358;2023-04-28T05:09:50;100183.09;;;10.03
72278;BMP280;61204;49.980;8.358;2023-04-28T05:12:16;100183.81;;;10.03
72278;BMP280;61204;49.980;8.358;2023-04-28T05:14:41;100171.53;;;10.04
72278;BMP280;61204;49.980;8.358;2023-04-28T05:17:06;100166.06;;;10.04
72278;BMP280;61204;49.980;8.358;2023-04-28T05:19:32;100156.13;;;9.99
72278;BMP280;61204;49.980;8.358;2023-04-28T05:21:57;100153.25;;;9.97
72278;BMP280;61204;49.980;8.358;2023-04-28T05:24:24;100147.50;;;9.93
72278;BMP280;61204;49.980;8.358;2023-04-28T05:26:50;100145.22;;;9.90
72278;BMP280;61204;49.980;8.358;2023-04-28T05:29:22;100148.56;;;9.88
72278;BMP280;61204;49.980;8.358;2023-04-28T05:31:47;100154.84;;;9.91
72278;BMP280;61204;49.980;8.358;2023-04-28T05:34:12;100141.88;;;9.91
72278;BMP280;61204;49.980;8.358;2023-04-28T05:36:38;100149.53;;;9.93
72278;BMP280;61204;49.980;8.358;2023-04-28T05:39:03;100150.97;;;9.94
72278;BMP280;61204;49.980;8.358;2023-04-28T05:41:29;100145.22;;;9.90
72278;BMP280;61204;49.980;8.358;2023-04-28T05:43:57;100147.22;;;9.89
72278;BMP280;61204;49.980;8.358;2023-04-28T05:46:22;100142.22;;;9.86
72278;BMP280;61204;49.980;8.358;2023-04-28T05:48:50;100146.25;;;9.85
72278;BMP280;61204;49.980;8.358;2023-04-28T05:51:15;100139.63;;;9.88
72278;BMP280;61204;49.980;8.358;2023-04-28T05:53:40;100128.06;;;9.89
72278;BMP280;61204;49.980;8.358;2023-04-28T05:56:06;100119.16;;;9.89
72278;BMP280;61204;49.980;8.358;2023-04-28T05:58:32;100124.72;;;9.91
72278;BMP280;61204;49.980;8.358;2023-04-28T06:00:58;100119.16;;;9.89
72278;BMP280;61204;49.980;8.358;2023-04-28T06:03:26;100112.09;;;9.86
72278;BMP280;61204;49.980;8.358;2023-04-28T06:05:54;100109.50;;;9.88
72278;BMP280;61204;49.980;8.358;2023-04-28T06:08:20;100108.78;;;9.87
72278;BMP280;61204;49.980;8.358;2023-04-28T06:10:45;100094.63;;;9.91
72278;BMP280;61204;49.980;8.358;2023-04-28T06:13:11;100102.25;;;9.92
72278;BMP280;61204;49.980;8.358;2023-04-28T06:15:36;100108.31;;;9.91
72278;BMP280;61204;49.980;8.358;2023-04-28T06:18:02;100096.06;;;9.92
72278;BMP280;61204;49.980;8.358;2023-04-28T06:20:30;100097.78;;;9.97
72278;BMP280;61204;49.980;8.358;2023-04-28T06:22:55;100105.38;;;9.98
72278;BMP280;61204;49.980;8.358;2023-04-28T06:25:20;100105.53;;;10.00
72278;BMP280;61204;49.980;8.358;2023-04-28T06:27:46;100101.38;;;9.99
72278;BMP280;61204;49.980;8.358;2023-04-28T06:30:20;100116.50;;;10.00
72278;BMP280;61204;49.980;8.358;2023-04-28T06:32:47;100117.34;;;10.03
72278;BMP280;61204;49.980;8.358;2023-04-28T06:35:13;100105.53;;;10.00
72278;BMP280;61204;49.980;8.358;2023-04-28T06:37:40;100114.03;;;10.04
72278;BMP280;61204;49.980;8.358;2023-04-28T06:40:06;100101.88;;;10.07
72278;BMP280;61204;49.980;8.358;2023-04-28T06:42:35;100113.69;;;10.10
72278;BMP280;61204;49.980;8.358;2023-04-28T06:45:01;100100.00;;;10.10
72278;BMP280;61204;49.980;8.358;2023-04-28T06:47:27;100099.56;;;10.14
72278;BMP280;61204;49.980;8.358;2023-04-28T06:49:52;100103.84;;;10.17
72278;BMP280;61204;49.980;8.358;2023-04-28T06:52:18;100092.59;;;10.22
72278;BMP280;61204;49.980;8.358;2023-04-28T06:54:46;100082.44;;;10.25
72278;BMP280;61204;49.980;8.358;2023-04-28T06:57:12;100088.06;;;10.27
72278;BMP280;61204;49.980;8.358;2023-04-28T06:59:37;100094.88;;;10.26
72278;BMP280;61204;49.980;8.358;2023-04-28T07:02:03;100089.19;;;10.33
72278;BMP280;61204;49.980;8.358;2023-04-28T07:04:28;100077.19;;;10.39
72278;BMP280;61204;49.980;8.358;2023-04-28T07:06:54;100073.25;;;10.42
72278;BMP280;61204;49.980;8.358;2023-04-28T07:09:19;100078.03;;;10.41
72278;BMP280;61204;49.980;8.358;2023-04-28T07:11:45;100062.31;;;10.42
72278;BMP280;61204;49.980;8.358;2023-04-28T07:14:13;100054.78;;;10.42
72278;BMP280;61204;49.980;8.358;2023-04-28T07:16:41;100063.16;;;10.44
72278;BMP280;61204;49.980;8.358;2023-04-28T07:19:07;100048.28;;;10.47
72278;BMP280;61204;49.980;8.358;2023-04-28T07:21:34;100053.75;;;10.47
72278;BMP280;61204;49.980;8.358;2023-04-28T07:24:00;100047.22;;;10.52
72278;BMP280;61204;49.980;8.358;2023-04-28T07:26:25;100060.56;;;10.58
72278;BMP280;61204;49.980;8.358;2023-04-28T07:28:53;100067.69;;;10.73
72278;BMP280;61204;49.980;8.358;2023-04-28T07:31:18;100071.84;;;10.74
72278;BMP280;61204;49.980;8.358;2023-04-28T07:33:45;100065.91;;;10.77
72278;BMP280;61204;49.980;8.358;2023-04-28T07:36:11;100062.69;;;10.81
72278;BMP280;61204;49.980;8.358;2023-04-28T07:38:36;100067.38;;;10.90
72278;BMP280;61204;49.980;8.358;2023-04-28T07:41:02;100068.09;;;10.90
72278;BMP280;61204;49.980;8.358;2023-04-28T07:43:28;100068.88;;;10.81
72278;BMP280;61204;49.980;8.358;2023-04-28T07:45:54;100071.38;;;10.77
72278;BMP280;61204;49.980;8.358;2023-04-28T07:48:20;100072.25;;;10.80
72278;BMP280;61204;49.980;8.358;2023-04-28T07:50:48;100079.38;;;10.85
72278;BMP280;61204;49.980;8.358;2023-04-28T07:53:13;100092.53;;;10.86
72278;BMP280;61204;49.980;8.358;2023-04-28T07:55:39;100086.25;;;10.96
72278;BMP280;61204;49.980;8.358;2023-04-28T07:58:07;100084.44;;;10.88
72278;BMP280;61204;49.980;8.358;2023-04-28T08:00:33;100089.44;;;10.92
72278;BMP280;61204;49.980;8.358;2023-04-28T08:02:58;100084.00;;;11.04
72278;BMP280;61204;49.980;8.358;2023-04-28T08:05:23;100083.28;;;11.15
72278;BMP280;61204;49.980;8.358;2023-04-28T08:07:49;100083.31;;;11.27
72278;BMP280;61204;49.980;8.358;2023-04-28T08:10:15;100091.31;;;11.46
72278;BMP280;61204;49.980;8.358;2023-04-28T08:12:40;100096.94;;;11.48
72278;BMP280;61204;49.980;8.358;2023-04-28T08:15:07;100100.31;;;11.58
72278;BMP280;61204;49.980;8.358;2023-04-28T08:17:34;100093.59;;;11.61
72278;BMP280;61204;49.980;8.358;2023-04-28T08:19:59;100099.13;;;11.73
72278;BMP280;61204;49.980;8.358;2023-04-28T08:22:25;100097.28;;;11.89
72278;BMP280;61204;49.980;8.358;2023-04-28T08:24:50;100095.03;;;11.86
72278;BMP280;61204;49.980;8.358;2023-04-28T08:27:15;100103.88;;;11.96
72278;BMP280;61204;49.980;8.358;2023-04-28T08:29:41;100103.44;;;12.13
72278;BMP280;61204;49.980;8.358;2023-04-28T08:32:06;100106.34;;;12.15
72278;BMP280;61204;49.980;8.358;2023-04-28T08:34:32;100115.03;;;12.23
72278;BMP280;61204;49.980;8.358;2023-04-28T08:36:58;100113.41;;;12.44
72278;BMP280;61204;49.980;8.358;2023-04-28T08:39:24;100119.97;;;12.50
72278;BMP280;61204;49.980;8.358;2023-04-28T08:41:53;100123.19;;;12.47
72278;BMP280;61204;49.980;8.358;2023-04-28T08:44:18;100121.34;;;12.63
72278;BMP280;61204;49.980;8.358;2023-04-28T08:46:44;100112.72;;;12.69
72278;BMP280;61204;49.980;8.358;2023-04-28T08:49:14;100115.97;;;12.91
72278;BMP280;61204;49.980;8.358;2023-04-28T08:51:54;100141.78;;;12.72
72278;BMP280;61204;49.980;8.358;2023-04-28T08:54:23;100133.25;;;12.79
72278;BMP280;61204;49.980;8.358;2023-04-28T08:56:55;100139.28;;;12.90
72278;BMP280;61204;49.980;8.358;2023-04-28T08:59:22;100143.22;;;12.98
72278;BMP280;61204;49.980;8.358;2023-04-28T09:01:48;100161.25;;;13.01
72278;BMP280;61204;49.980;8.358;2023-04-28T09:04:17;100158.09;;;13.32
72278;BMP280;61204;49.980;8.358;2023-04-28T09:06:44;100159.44;;;13.45
72278;BMP280;61204;49.980;8.358;2023-04-28T09:09:23;100171.88;;;13.46
72278;BMP280;61204;49.980;8.358;2023-04-28T09:11:53;100159.69;;;13.90
72278;BMP280;61204;49.980;8.358;2023-04-28T09:14:22;100176.28;;;14.06
72278;BMP280;61204;49.980;8.358;2023-04-28T09:16:48;100189.88;;;14.16
72278;BMP280;61204;49.980;8.358;2023-04-28T09:19:15;100195.81;;;13.96
72278;BMP280;61204;49.980;8.358;2023-04-28T09:24:32;100177.84;;;14.09
72278;BMP280;61204;49.980;8.358;2023-04-28T09:27:01;100175.84;;;14.39
72278;BMP280;61204;49.980;8.358;2023-04-28T09:29:32;100203.34;;;14.23
72278;BMP280;61204;49.980;8.358;2023-04-28T09:34:47;100199.56;;;14.17
72278;BMP280;61204;49.980;8.358;2023-04-28T09:40:06;100218.38;;;14.34
72278;BMP280;61204;49.980;8.358;2023-04-28T09:42:41;100215.66;;;14.50
72278;BMP280;61204;49.980;8.358;2023-04-28T09:45:13;100230.53;;;14.15
72278;BMP280;61204;49.980;8.358;2023-04-28T09:47:41;100225.63;;;14.00
72278;BMP280;61204;49.980;8.358;2023-04-28T09:50:10;100224.78;;;14.25
72278;BMP280;61204;49.980;8.358;2023-04-28T09:52:41;100224.38;;;14.74
72278;BMP280;61204;49.980;8.358;2023-04-28T09:55:21;100215.41;;;15.19
72278;BMP280;61204;49.980;8.358;2023-04-28T09:57:48;100225.16;;;15.51
72278;BMP280;61204;49.980;8.358;2023-04-28T10:00:18;100218.72;;;15.94
72278;BMP280;61204;49.980;8.358;2023-04-28T10:02:47;100226.94;;;15.76
72278;BMP280;61204;49.980;8.358;2023-04-28T10:05:15;100242.78;;;15.91
72278;BMP280;61204;49.980;8.358;2023-04-28T10:07:41;100236.91;;;15.83
72278;BMP280;61204;49.980;8.358;2023-04-28T10:10:07;100239.25;;;15.89
72278;BMP280;61204;49.980;8.358;2023-04-28T10:12:33;100246.97;;;16.08
72278;BMP280;61204;49.980;8.358;2023-04-28T10:15:02;100244.44;;;16.14
72278;BMP280;61204;49.980;8.358;2023-04-28T10:17:28;100247.94;;;16.15
72278;BMP280;61204;49.980;8.358;2023-04-28T10:19:54;100249.84;;;15.94
72278;BMP280;61204;49.980;8.358;2023-04-28T10:25:24;100246.63;;;15.53
72278;BMP280;61204;49.980;8.358;2023-04-28T10:27:49;100238.88;;;15.65
72278;BMP280;61204;49.980;8.358;2023-04-28T10:30:20;100241.09;;;15.37
72278;BMP280;61204;49.980;8.358;2023-04-28T10:33:34;100235.88;;;15.43
72278;BMP280;61204;49.980;8.358;2023-04-28T10:38:17;100231.84;;;15.78
72278;BMP280;61204;49.980;8.358;2023-04-28T10:40:47;100230.75;;;16.00
72278;BMP280;61204;49.980;8.358;2023-04-28T10:48:20;100230.97;;;16.07
72278;BMP280;61204;49.980;8.358;2023-04-28T10:58:37;100234.41;;;16.56
72278;BMP280;61204;49.980;8.358;2023-04-28T11:06:37;100235.56;;;17.05
72278;BMP280;61204;49.980;8.358;2023-04-28T11:14:34;100229.03;;;17.16
72278;BMP280;61204;49.980;8.358;2023-04-28T11:17:02;100236.50;;;17.89
72278;BMP280;61204;49.980;8.358;2023-04-28T11:19:37;100241.84;;;17.63
72278;BMP280;61204;49.980;8.358;2023-04-28T11:22:14;100241.69;;;17.59
72278;BMP280;61204;49.980;8.358;2023-04-28T11:24:54;100243.31;;;17.08
72278;BMP280;61204;49.980;8.358;2023-04-28T11:27:27;100230.72;;;16.68
72278;BMP280;61204;49.980;8.358;2023-04-28T11:29:57;100224.56;;;17.44
72278;BMP280;61204;49.980;8.358;2023-04-28T11:32:27;100230.69;;;17.61
72278;BMP280;61204;49.980;8.358;2023-04-28T11:34:55;100228.44;;;17.57
72278;BMP280;61204;49.980;8.358;2023-04-28T11:37:20;100232.28;;;17.28
72278;BMP280;61204;49.980;8.358;2023-04-28T11:39:49;100220.66;;;17.51
72278;BMP280;61204;49.980;8.358;2023-04-28T11:42:15;100218.34;;;17.86
72278;BMP280;61204;49.980;8.358;2023-04-28T11:44:41;100231.94;;;17.77
72278;BMP280;61204;49.980;8.358;2023-04-28T11:47:31;100221.72;;;17.82
72278;BMP280;61204;49.980;8.358;2023-04-28T11:49:58;100208.06;;;17.88
72278;BMP280;61204;49.980;8.358;2023-04-28T11:52:25;100211.69;;;18.36
72278;BMP280;61204;49.980;8.358;2023-04-28T11:54:55;100213.03;;;18.13
72278;BMP280;61204;49.980;8.358;2023-04-28T11:57:23;100211.16;;;18.20
72278;BMP280;61204;49.980;8.358;2023-04-28T11:59:51;100206.47;;;18.25
72278;BMP280;61204;49.980;8.358;2023-04-28T12:02:23;100209.34;;;18.29
72278;BMP280;61204;49.980;8.358;2023-04-28T12:04:54;100203.50;;;17.77
72278;BMP280;61204;49.980;8.358;2023-04-28T12:07:29;100214.28;;;19.00
72278;BMP280;61204;49.980;8.358;2023-04-28T12:10:11;100212.81;;;19.47
72278;BMP280;61204;49.980;8.358;2023-04-28T12:12:44;100215.38;;;20.52
72278;BMP280;61204;49.980;8.358;2023-04-28T12:15:11;100203.19;;;20.68
72278;BMP280;61204;49.980;8.358;2023-04-28T12:17:37;100204.53;;;20.67
72278;BMP280;61204;49.980;8.358;2023-04-28T12:20:32;100198.16;;;21.72
72278;BMP280;61204;49.980;8.358;2023-04-28T12:23:02;100205.09;;;20.93
72278;BMP280;61204;49.980;8.358;2023-04-28T12:25:27;100209.41;;;21.00
72278;BMP280;61204;49.980;8.358;2023-04-28T12:30:29;100223.50;;;22.85
72278;BMP280;61204;49.980;8.358;2023-04-28T12:32:57;100216.13;;;23.93
72278;BMP280;61204;49.980;8.358;2023-04-28T12:35:24;100220.91;;;23.76
72278;BMP280;61204;49.980;8.358;2023-04-28T12:37:51;100217.84;;;24.46
72278;BMP280;61204;49.980;8.358;2023-04-28T12:40:22;100219.75;;;24.09
72278;BMP280;61204;49.980;8.358;2023-04-28T12:42:48;100212.41;;;24.87
72278;BMP280;61204;49.980;8.358;2023-04-28T12:45:14;100210.38;;;25.36
72278;BMP280;61204;49.980;8.358;2023-04-28T12:47:40;100215.97;;;25.30
72278;BMP280;61204;49.980;8.358;2023-04-28T12:50:06;100222.06;;;24.54
72278;BMP280;61204;49.980;8.358;2023-04-28T12:52:33;100219.09;;;24.17
72278;BMP280;61204;49.980;8.358;2023-04-28T12:55:00;100222.00;;;23.40
72278;BMP280;61204;49.980;8.358;2023-04-28T12:57:26;100222.94;;;22.97
72278;BMP280;61204;49.980;8.358;2023-04-28T12:59:52;100203.16;;;22.22
72278;BMP280;61204;49.980;8.358;2023-04-28T13:02:20;100199.91;;;21.94
72278;BMP280;61204;49.980;8.358;2023-04-28T13:04:48;100194.03;;;21.75
72278;BMP280;61204;49.980;8.358;2023-04-28T13:07:15;100192.38;;;21.60
72278;BMP280;61204;49.980;8.358;2023-04-28T13:09:41;100185.06;;;21.03
72278;BMP280;61204;49.980;8.358;2023-04-28T13:12:07;100186.34;;;21.34
72278;BMP280;61204;49.980;8.358;2023-04-28T13:14:34;100195.81;;;20.82
72278;BMP280;61204;49.980;8.358;2023-04-28T13:17:02;100210.53;;;20.23
72278;BMP280;61204;49.980;8.358;2023-04-28T13:19:28;100197.56;;;20.34
72278;BMP280;61204;49.980;8.358;2023-04-28T13:21:58;100196.91;;;20.67
72278;BMP280;61204;49.980;8.358;2023-04-28T13:24:24;100198.66;;;20.84
72278;BMP280;61204;49.980;8.358;2023-04-28T13:26:50;100200.25;;;20.61
72278;BMP280;61204;49.980;8.358;2023-04-28T13:29:16;100199.06;;;20.39
72278;BMP280;61204;49.980;8.358;2023-04-28T13:31:42;100174.94;;;20.49
72278;BMP280;61204;49.980;8.358;2023-04-28T13:34:08;100178.25;;;20.42
72278;BMP280;61204;49.980;8.358;2023-04-28T13:36:39;100181.66;;;20.38
72278;BMP280;61204;49.980;8.358;2023-04-28T13:39:06;100176.13;;;20.40
72278;BMP280;61204;49.980;8.358;2023-04-28T13:41:35;100159.22;;;20.30
72278;BMP280;61204;49.980;8.358;2023-04-28T13:44:03;100168.66;;;19.59
72278;BMP280;61204;49.980;8.358;2023-04-28T13:46:29;100167.09;;;20.10
72278;BMP280;61204;49.980;8.358;2023-04-28T13:48:57;100164.63;;;19.12
72278;BMP280;61204;49.980;8.358;2023-04-28T13:51:23;100140.78;;;19.03
72278;BMP280;61204;49.980;8.358;2023-04-28T13:53:48;100125.97;;;18.70
72278;BMP280;61204;49.980;8.358;2023-04-28T13:56:14;100119.81;;;18.74
72278;BMP280;61204;49.980;8.358;2023-04-28T13:58:40;100079.56;;;19.01
72278;BMP280;61204;49.980;8.358;2023-04-28T14:01:05;100066.28;;;18.71
72278;BMP280;61204;49.980;8.358;2023-04-28T14:03:31;100051.44;;;18.61
72278;BMP280;61204;49.980;8.358;2023-04-28T14:05:58;100039.16;;;18.20
72278;BMP280;61204;49.980;8.358;2023-04-28T14:08:24;100040.41;;;18.15
72278;BMP280;61204;49.980;8.358;2023-04-28T14:10:50;100036.78;;;18.10
72278;BMP280;61204;49.980;8.358;2023-04-28T14:13:16;100006.09;;;18.28
72278;BMP280;61204;49.980;8.358;2023-04-28T14:15:43;100004.75;;;18.55
72278;BMP280;61204;49.980;8.358;2023-04-28T14:18:09;100007.81;;;18.65
72278;BMP280;61204;49.980;8.358;2023-04-28T14:20:37;100009.22;;;18.66
72278;BMP280;61204;49.980;8.358;2023-04-28T14:23:02;100018.53;;;18.77
72278;BMP280;61204;49.980;8.358;2023-04-28T14:25:28;100023.34;;;18.74
72278;BMP280;61204;49.980;8.358;2023-04-28T14:27:53;100020.09;;;19.10
72278;BMP280;61204;49.980;8.358;2023-04-28T14:30:19;100049.06;;;19.31
72278;BMP280;61204;49.980;8.358;2023-04-28T14:32:46;100045.72;;;19.07
72278;BMP280;61204;49.980;8.358;2023-04-28T14:35:12;100052.47;;;19.27
72278;BMP280;61204;49.980;8.358;2023-04-28T14:37:39;100039.03;;;19.46